createdAt,value
2023-03-01T00:00:47.546Z,96179.50
2023-03-01T00:01:49.858Z,96173.34
2023-03-01T00:02:54.077Z,96187.94
2023-03-01T00:03:56.593Z,96185.06
2023-03-01T00:04:59.530Z,96175.44
2023-03-01T00:06:02.474Z,96174.28
2023-03-01T00:07:05.371Z,96169.34
2023-03-01T00:08:07.318Z,96172.13
2023-03-01T00:09:10.264Z,96179.50
2023-03-01T00:10:12.557Z,96174.81
2023-03-01T00:11:18.950Z,96169.34
2023-03-01T00:12:20.950Z,96175.44
2023-03-01T00:13:23.887Z,96172.31
2023-03-01T00:14:25.844Z,96164.91
2023-03-01T00:15:29.095Z,96167.59
2023-03-01T00:16:34.630Z,96162.22
2023-03-01T00:17:37.673Z,96168.84
2023-03-01T00:18:39.673Z,96156.91
2023-03-01T00:19:42.670Z,96165.88
2023-03-01T00:20:50.978Z,96165.50
2023-03-01T00:21:53.926Z,96169.34
2023-03-01T00:22:55.886Z,96166.56
2023-03-01T00:23:59.648Z,96164.66
2023-03-01T00:25:02.381Z,96167.69
2023-03-01T00:26:09.092Z,96161.38
2023-03-01T00:27:12.789Z,96169.44
2023-03-01T00:28:16.322Z,96166.75
2023-03-01T00:29:18.265Z,96161.00
2023-03-01T00:30:21.245Z,96172.91
2023-03-01T00:31:27.535Z,96162.47
2023-03-01T00:32:30.405Z,96160.22
2023-03-01T00:33:32.304Z,96160.16
2023-03-01T00:34:35.226Z,96169.78
2023-03-01T00:35:37.258Z,96161.38
2023-03-01T00:36:40.976Z,96164.06
2023-03-01T00:37:43.331Z,96155.63
2023-03-01T00:38:48.063Z,96156.81
2023-03-01T00:39:50.502Z,96156.91
2023-03-01T00:40:53.420Z,96151.63
2023-03-01T00:41:57.354Z,96147.00
2023-03-01T00:43:00.987Z,96142.84
2023-03-01T00:44:04.321Z,96152.13
2023-03-01T00:45:08.923Z,96142.50
2023-03-01T00:46:15.028Z,96157.00
2023-03-01T00:47:17.028Z,96151.03
2023-03-01T00:48:19.990Z,96140.50
2023-03-01T00:49:21.898Z,96147.09
2023-03-01T00:50:25.975Z,96142.94
2023-03-01T00:51:30.201Z,96148.34
2023-03-01T00:52:33.211Z,96150.66
2023-03-01T00:53:35.770Z,96153.78
2023-03-01T00:54:38.774Z,96145.38
2023-03-01T00:55:40.901Z,96141.91
2023-03-01T00:56:43.882Z,96144.22
2023-03-01T00:57:45.843Z,96140.84
2023-03-01T00:58:50.837Z,96142.41
2023-03-01T00:59:53.256Z,96136.66
2023-03-01T01:00:56.184Z,96137.44
2023-03-01T01:01:58.119Z,96139.44
2023-03-01T01:03:01.026Z,96137.09
2023-03-01T01:04:05.200Z,96138.56
2023-03-01T01:05:09.145Z,96131.63
2023-03-01T01:06:15.332Z,96137.00
2023-03-01T01:07:18.386Z,96137.00
2023-03-01T01:08:20.827Z,96123.19
2023-03-01T01:09:23.749Z,96122.41
2023-03-01T01:10:25.903Z,96126.94
2023-03-01T01:11:31.011Z,96115.72
2023-03-01T01:12:33.384Z,96124.59
2023-03-01T01:13:36.265Z,96119.19
2023-03-01T01:14:39.622Z,96116.00
2023-03-01T01:15:42.712Z,96116.63
2023-03-01T01:16:45.102Z,96116.63
2023-03-01T01:17:48.023Z,96120.44
2023-03-01T01:18:50.477Z,96112.78
2023-03-01T01:19:53.418Z,96111.25
2023-03-01T01:20:55.359Z,96110.44
2023-03-01T01:21:58.455Z,96114.38
2023-03-01T01:23:00.353Z,96118.94
2023-03-01T01:24:05.923Z,96113.56
2023-03-01T01:25:08.765Z,96102.44
2023-03-01T01:26:14.695Z,96104.38
2023-03-01T01:27:16.758Z,96106.00
2023-03-01T01:28:19.909Z,96114.53
2023-03-01T01:29:21.769Z,96101.84
2023-03-01T01:30:27.023Z,96098.44
2023-03-01T01:31:29.782Z,96094.63
2023-03-01T01:32:33.568Z,96100.44
2023-03-01T01:33:35.917Z,96100.06
2023-03-01T01:34:38.875Z,96100.84
2023-03-01T01:35:40.877Z,96091.66
2023-03-01T01:36:44.020Z,96094.00
2023-03-01T01:37:46.065Z,96092.41
2023-03-01T01:38:49.455Z,96092.34
2023-03-01T01:39:51.545Z,96090.72
2023-03-01T01:40:54.522Z,96094.53
2023-03-01T01:41:56.517Z,96100.69
2023-03-01T01:42:59.366Z,96093.03
2023-03-01T01:44:18.078Z,96091.94
2023-03-01T01:45:32.678Z,96092.25
2023-03-01T01:46:38.707Z,96082.25
2023-03-01T01:47:41.672Z,96092.34
2023-03-01T01:48:47.758Z,96088.53
2023-03-01T01:49:53.612Z,96080.44
2023-03-01T01:51:00.016Z,96080.09
2023-03-01T01:52:10.699Z,96076.19
2023-03-01T01:53:15.574Z,96073.84
2023-03-01T01:54:24.218Z,96082.34
2023-03-01T01:55:28.650Z,96080.78
2023-03-01T01:56:32.321Z,96079.22
2023-03-01T01:57:38.382Z,96085.25
2023-03-01T01:58:43.354Z,96078.31
2023-03-01T01:59:52.068Z,96082.53
2023-03-01T02:00:56.566Z,96075.25
2023-03-01T02:02:02.372Z,96077.59
2023-03-01T02:03:08.982Z,96071.84
2023-03-01T02:04:11.096Z,96072.25
2023-03-01T02:05:19.709Z,96077.75
2023-03-01T02:06:30.030Z,96070.09
2023-03-01T02:07:33.305Z,96070.88
2023-03-01T02:08:42.213Z,96069.31
2023-03-01T02:09:48.641Z,96068.50
2023-03-01T02:10:53.012Z,96067.75
2023-03-01T02:11:56.410Z,96071.06
2023-03-01T02:12:59.136Z,96062.13
2023-03-01T02:14:02.214Z,96064.41
2023-03-01T02:15:04.821Z,96062.81
2023-03-01T02:16:11.452Z,96073.59
2023-03-01T02:17:16.984Z,96075.16
2023-03-01T02:18:22.564Z,96065.94
2023-03-01T02:19:35.694Z,96063.69
2023-03-01T02:20:50.972Z,96065.66
2023-03-01T02:22:00.532Z,96064.56
2023-03-01T02:23:03.932Z,96067.69
2023-03-01T02:24:18.667Z,96066.09
2023-03-01T02:25:36.187Z,96059.59
2023-03-01T02:26:44.713Z,96058.09
2023-03-01T02:27:55.993Z,96062.00
2023-03-01T02:29:00.791Z,96056.28
2023-03-01T02:30:03.223Z,96056.28
2023-03-01T02:31:25.654Z,96064.00
2023-03-01T02:32:28.661Z,96055.56
2023-03-01T02:33:33.762Z,96060.94
2023-03-01T02:34:38.023Z,96060.59
2023-03-01T02:35:40.505Z,96060.09
2023-03-01T02:36:48.193Z,96059.66
2023-03-01T02:37:50.502Z,96052.72
2023-03-01T02:38:57.101Z,96055.75
2023-03-01T02:40:03.926Z,96059.59
2023-03-01T02:41:09.173Z,96051.50
2023-03-01T02:42:15.138Z,96049.94
2023-03-01T02:43:18.527Z,96049.16
2023-03-01T02:44:23.602Z,96053.78
2023-03-01T02:45:27.358Z,96049.06
2023-03-01T02:46:30.592Z,96056.75
2023-03-01T02:47:32.849Z,96055.88
2023-03-01T02:48:44.025Z,96055.03
2023-03-01T02:49:45.885Z,96048.09
2023-03-01T02:51:07.100Z,96045.03
2023-03-01T02:52:30.821Z,96048.25
2023-03-01T02:53:41.498Z,96043.69
2023-03-01T02:54:49.093Z,96047.63
2023-03-01T02:55:53.248Z,96043.00
2023-03-01T02:56:57.036Z,96046.56
2023-03-01T02:58:04.120Z,96049.25
2023-03-01T02:59:07.706Z,96040.59
2023-03-01T03:00:20.349Z,96041.72
2023-03-01T03:01:22.951Z,96044.41
2023-03-01T03:02:37.838Z,96045.97
2023-03-01T03:03:48.932Z,96042.91
2023-03-01T03:04:51.814Z,96042.91
2023-03-01T03:05:54.171Z,96049.06
2023-03-01T03:06:56.939Z,96043.63
2023-03-01T03:08:02.273Z,96042.06
2023-03-01T03:09:09.021Z,96044.69
2023-03-01T03:10:13.326Z,96047.38
2023-03-01T03:11:16.373Z,96048.91
2023-03-01T03:12:18.372Z,96044.34
2023-03-01T03:13:23.042Z,96046.66
2023-03-01T03:14:25.451Z,96047.09
2023-03-01T03:15:30.938Z,96051.78
2023-03-01T03:16:33.256Z,96053.25
2023-03-01T03:17:36.993Z,96046.75
2023-03-01T03:18:39.016Z,96050.13
2023-03-01T03:19:41.863Z,96052.75
2023-03-01T03:20:45.070Z,96047.28
2023-03-01T03:21:49.904Z,96050.78
2023-03-01T03:22:53.676Z,96041.84
2023-03-01T03:23:58.970Z,96059.53
2023-03-01T03:25:02.345Z,96051.84
2023-03-01T03:26:05.801Z,96055.72
2023-03-01T03:27:08.295Z,96046.50
2023-03-01T03:28:11.549Z,96044.25
2023-03-01T03:29:13.404Z,96047.38
2023-03-01T03:30:18.192Z,96044.09
2023-03-01T03:31:21.576Z,96047.22
2023-03-01T03:32:24.455Z,96043.38
2023-03-01T03:33:26.391Z,96041.56
2023-03-01T03:34:29.420Z,96047.28
2023-03-01T03:35:33.660Z,96048.50
2023-03-01T03:36:37.791Z,96039.28
2023-03-01T03:37:59.491Z,96048.91
2023-03-01T03:39:03.361Z,96042.06
2023-03-01T03:40:16.203Z,96041.28
2023-03-01T03:41:19.568Z,96038.16
2023-03-01T03:42:22.567Z,96035.81
2023-03-01T03:43:25.456Z,96033.38
2023-03-01T03:44:27.380Z,96038.38
2023-03-01T03:45:30.756Z,96040.25
2023-03-01T03:46:34.258Z,96035.16
2023-03-01T03:47:37.297Z,96034.66
2023-03-01T03:48:41.131Z,96032.91
2023-03-01T03:49:43.972Z,96037.59
2023-03-01T03:50:50.280Z,96032.75
2023-03-01T03:51:53.150Z,96030.41
2023-03-01T03:52:54.975Z,96027.56
2023-03-01T03:53:58.176Z,96028.69
2023-03-01T03:55:00.108Z,96028.69
2023-03-01T03:56:05.665Z,96038.59
2023-03-01T03:57:08.522Z,96038.16
2023-03-01T03:58:12.247Z,96027.22
2023-03-01T03:59:14.262Z,96030.69
2023-03-01T04:00:18.123Z,96038.44
2023-03-01T04:01:20.393Z,96023.16
2023-03-01T04:02:25.158Z,96026.78
2023-03-01T04:03:28.240Z,96025.81
2023-03-01T04:04:31.072Z,96020.59
2023-03-01T04:05:32.950Z,96019.19
2023-03-01T04:06:35.760Z,96019.28
2023-03-01T04:07:38.777Z,96018.56
2023-03-01T04:08:42.641Z,96012.31
2023-03-01T04:09:44.837Z,96013.88
2023-03-01T04:10:49.673Z,96009.22
2023-03-01T04:11:51.543Z,96007.19
2023-03-01T04:12:57.264Z,96014.84
2023-03-01T04:14:01.183Z,96012.88
2023-03-01T04:15:13.541Z,96010.94
2023-03-01T04:16:17.227Z,96007.47
2023-03-01T04:17:19.984Z,96016.50
2023-03-01T04:18:26.924Z,96009.41
2023-03-01T04:19:29.029Z,96005.69
2023-03-01T04:20:35.684Z,96008.81
2023-03-01T04:21:37.566Z,95998.72
2023-03-01T04:22:41.207Z,96005.75
2023-03-01T04:23:43.066Z,96005.06
2023-03-01T04:24:46.428Z,96006.97
2023-03-01T04:25:54.982Z,96010.44
2023-03-01T04:26:57.911Z,96013.81
2023-03-01T04:27:59.791Z,96008.09
2023-03-01T04:29:03.367Z,96002.09
2023-03-01T04:30:06.087Z,96000.28
2023-03-01T04:31:14.914Z,96009.22
2023-03-01T04:32:17.600Z,96002.25
2023-03-01T04:33:20.849Z,96010.75
2023-03-01T04:34:24.863Z,96013.78
2023-03-01T04:35:27.764Z,96013.38
2023-03-01T04:36:31.144Z,96005.38
2023-03-01T04:37:35.751Z,96010.06
2023-03-01T04:38:38.770Z,96015.13
2023-03-01T04:39:46.442Z,96016.69
2023-03-01T04:40:48.665Z,96010.59
2023-03-01T04:41:51.499Z,96009.47
2023-03-01T04:42:53.507Z,96009.91
2023-03-01T04:43:56.411Z,96011.91
2023-03-01T04:44:58.268Z,96009.22
2023-03-01T04:46:04.544Z,96003.81
2023-03-01T04:47:06.513Z,96002.69
2023-03-01T04:48:09.450Z,96013.53
2023-03-01T04:49:11.339Z,96012.31
2023-03-01T04:50:17.907Z,96004.88
2023-03-01T04:51:19.761Z,95999.91
2023-03-01T04:52:22.582Z,96006.09
2023-03-01T04:53:24.536Z,96006.16
2023-03-01T04:54:27.387Z,95997.31
2023-03-01T04:55:29.735Z,96004.94
2023-03-01T04:56:32.982Z,96005.94
2023-03-01T04:57:35.320Z,96004.00
2023-03-01T04:58:38.415Z,95998.91
2023-03-01T04:59:40.236Z,95993.53
2023-03-01T05:00:43.169Z,95990.91
2023-03-01T05:01:44.988Z,95991.34
2023-03-01T05:02:54.146Z,95995.66
2023-03-01T05:03:57.110Z,96000.00
2023-03-01T05:04:58.995Z,95993.91
2023-03-01T05:06:03.349Z,95993.97
2023-03-01T05:07:05.194Z,95996.25
2023-03-01T05:08:10.021Z,95991.34
2023-03-01T05:09:12.368Z,95996.28
2023-03-01T05:10:16.953Z,95989.78
2023-03-01T05:11:19.752Z,95995.56
2023-03-01T05:12:21.572Z,95987.50
2023-03-01T05:13:24.466Z,95990.56
2023-03-01T05:14:26.393Z,95983.69
2023-03-01T05:15:31.528Z,95996.72
2023-03-01T05:16:35.739Z,95995.84
2023-03-01T05:17:39.070Z,95987.34
2023-03-01T05:18:41.432Z,95990.47
2023-03-01T05:19:44.306Z,95989.34
2023-03-01T05:20:46.095Z,95985.25
2023-03-01T05:22:06.301Z,95983.31
2023-03-01T05:23:08.126Z,95981.31
2023-03-01T05:24:12.637Z,95988.97
2023-03-01T05:25:15.049Z,95987.22
2023-03-01T05:26:28.694Z,95983.84
2023-03-01T05:27:30.727Z,95985.56
2023-03-01T05:28:34.180Z,95988.41
2023-03-01T05:29:36.130Z,95984.88
2023-03-01T05:30:40.846Z,95980.72
2023-03-01T05:31:42.654Z,95983.84
2023-03-01T05:32:47.817Z,95985.38
2023-03-01T05:33:49.722Z,95986.88
2023-03-01T05:34:53.158Z,95984.16
2023-03-01T05:35:55.403Z,95992.78
2023-03-01T05:37:00.191Z,95984.88
2023-03-01T05:38:02.983Z,95990.28
2023-03-01T05:39:05.896Z,95984.97
2023-03-01T05:40:16.406Z,95984.72
2023-03-01T05:41:19.526Z,95990.09
2023-03-01T05:42:21.357Z,95984.28
2023-03-01T05:43:24.186Z,95994.94
2023-03-01T05:44:27.991Z,95983.91
2023-03-01T05:45:31.044Z,95980.72
2023-03-01T05:46:33.147Z,95991.66
2023-03-01T05:47:36.502Z,95983.25
2023-03-01T05:48:39.908Z,95983.41
2023-03-01T05:49:41.758Z,95983.13
2023-03-01T05:50:46.698Z,95991.91
2023-03-01T05:51:50.337Z,95982.28
2023-03-01T05:53:00.162Z,95991.22
2023-03-01T05:54:03.260Z,95979.75
2023-03-01T05:55:07.253Z,95982.53
2023-03-01T05:56:10.092Z,95975.38
2023-03-01T05:57:11.917Z,95984.34
2023-03-01T05:58:16.766Z,95979.81
2023-03-01T05:59:18.632Z,95983.38
2023-03-01T06:00:24.123Z,95987.88
2023-03-01T06:01:25.942Z,95997.72
2023-03-01T06:02:30.255Z,95986.44
2023-03-01T06:03:33.410Z,95993.63
2023-03-01T06:04:35.322Z,95985.84
2023-03-01T06:05:39.902Z,95983.66
2023-03-01T06:06:42.776Z,95996.47
2023-03-01T06:07:45.031Z,95987.03
2023-03-01T06:08:49.305Z,95987.19
2023-03-01T06:09:51.487Z,95990.75
2023-03-01T06:10:54.518Z,95993.16
2023-03-01T06:11:56.458Z,95995.41
2023-03-01T06:12:59.339Z,95994.28
2023-03-01T06:14:02.241Z,95988.22
2023-03-01T06:15:06.863Z,95994.03
2023-03-01T06:16:10.615Z,95985.44
2023-03-01T06:17:12.482Z,95988.22
2023-03-01T06:18:15.361Z,95987.50
2023-03-01T06:19:17.537Z,95995.66
2023-03-01T06:20:21.882Z,95996.53
2023-03-01T06:21:23.719Z,95993.91
2023-03-01T06:22:27.798Z,95992.78
2023-03-01T06:23:30.048Z,95997.72
2023-03-01T06:24:34.580Z,95993.75
2023-03-01T06:25:36.685Z,95993.75
2023-03-01T06:26:39.587Z,95997.56
2023-03-01T06:27:42.937Z,95995.31
2023-03-01T06:28:47.179Z,95994.59
2023-03-01T06:29:49.834Z,95991.19
2023-03-01T06:30:52.890Z,95998.59
2023-03-01T06:31:55.754Z,95992.50
2023-03-01T06:33:02.271Z,95991.28
2023-03-01T06:34:05.309Z,96000.00
2023-03-01T06:35:07.797Z,95989.53
2023-03-01T06:36:11.624Z,96014.63
2023-03-01T06:37:13.547Z,96001.09
2023-03-01T06:38:18.383Z,96004.31
2023-03-01T06:39:20.390Z,95997.38
2023-03-01T06:40:24.952Z,96005.53
2023-03-01T06:41:26.873Z,96002.22
2023-03-01T06:42:29.800Z,96006.56
2023-03-01T06:43:32.641Z,96001.53
2023-03-01T06:44:34.671Z,96000.59
2023-03-01T06:45:38.565Z,95999.53
2023-03-01T06:46:40.588Z,96001.03
2023-03-01T06:47:43.496Z,96006.41
2023-03-01T06:48:45.287Z,96004.75
2023-03-01T06:49:49.210Z,95998.34
2023-03-01T06:50:51.142Z,96002.91
2023-03-01T06:51:54.161Z,96002.91
2023-03-01T06:52:56.819Z,96006.13
2023-03-01T06:54:01.618Z,96011.69
2023-03-01T06:55:05.450Z,96005.16
2023-03-01T06:56:08.904Z,96009.84
2023-03-01T06:57:11.775Z,95995.25
2023-03-01T06:58:13.596Z,96005.69
2023-03-01T06:59:16.659Z,95987.28
2023-03-01T07:00:20.298Z,95998.47
2023-03-01T07:01:23.141Z,95996.63
2023-03-01T07:02:25.436Z,95996.72
2023-03-01T07:03:28.339Z,95995.41
2023-03-01T07:04:31.497Z,95998.09
2023-03-01T07:05:35.535Z,96000.47
2023-03-01T07:06:38.141Z,96000.56
2023-03-01T07:07:40.968Z,96000.94
2023-03-01T07:08:42.856Z,95997.44
2023-03-01T07:09:45.810Z,96000.47
2023-03-01T07:10:49.815Z,96004.91
2023-03-01T07:11:54.403Z,96004.63
2023-03-01T07:12:58.198Z,95998.19
2023-03-01T07:14:01.068Z,96006.25
2023-03-01T07:15:04.329Z,96004.13
2023-03-01T07:16:08.043Z,96000.09
2023-03-01T07:17:10.127Z,96000.09
2023-03-01T07:18:12.990Z,96004.66
2023-03-01T07:19:14.798Z,95999.13
2023-03-01T07:20:17.914Z,95997.22
2023-03-01T07:21:20.739Z,95999.13
2023-03-01T07:22:22.602Z,96000.28
2023-03-01T07:23:25.443Z,95987.16
2023-03-01T07:24:27.591Z,95999.06
2023-03-01T07:25:30.447Z,95996.56
2023-03-01T07:26:33.376Z,95986.41
2023-03-01T07:27:37.845Z,95989.88
2023-03-01T07:28:40.706Z,95987.97
2023-03-01T07:29:42.558Z,95989.44
2023-03-01T07:30:45.752Z,95984.84
2023-03-01T07:31:47.744Z,95990.84
2023-03-01T07:32:50.854Z,95991.09
2023-03-01T07:33:52.748Z,95987.72
2023-03-01T07:34:55.547Z,95996.84
2023-03-01T07:35:59.962Z,95980.63
2023-03-01T07:37:03.819Z,95992.25
2023-03-01T07:38:05.813Z,95990.41
2023-03-01T07:39:08.662Z,95985.53
2023-03-01T07:40:11.688Z,95991.78
2023-03-01T07:41:15.177Z,95986.50
2023-03-01T07:42:17.071Z,95981.53
2023-03-01T07:43:21.585Z,95985.09
2023-03-01T07:44:23.755Z,95981.72
2023-03-01T07:45:27.063Z,95985.22
2023-03-01T07:46:29.720Z,95983.69
2023-03-01T07:47:33.048Z,95981.44
2023-03-01T07:48:36.251Z,95979.16
2023-03-01T07:49:39.248Z,95970.72
2023-03-01T07:50:41.277Z,95974.63
2023-03-01T07:51:45.382Z,95969.88
2023-03-01T07:52:49.093Z,95969.50
2023-03-01T07:53:51.132Z,95978.31
2023-03-01T07:54:53.970Z,95972.91
2023-03-01T07:56:03.406Z,95978.31
2023-03-01T07:57:05.402Z,95973.34
2023-03-01T07:58:08.221Z,95976.56
2023-03-01T07:59:12.489Z,95964.28
2023-03-01T08:00:16.020Z,95974.00
2023-03-01T08:01:20.393Z,95973.91
2023-03-01T08:02:24.749Z,95979.06
2023-03-01T08:03:26.654Z,95965.63
2023-03-01T08:04:29.654Z,95971.50
2023-03-01T08:05:32.526Z,95971.59
2023-03-01T08:06:38.650Z,95976.25
2023-03-01T08:07:40.533Z,95967.91
2023-03-01T08:08:43.928Z,95966.09
2023-03-01T08:09:46.773Z,95964.25
2023-03-01T08:10:48.689Z,95965.13
2023-03-01T08:11:51.578Z,95960.78
2023-03-01T08:12:55.085Z,95965.81
2023-03-01T08:13:57.523Z,95962.06
2023-03-01T08:15:02.198Z,95963.25
2023-03-01T08:16:05.590Z,95959.88
2023-03-01T08:17:08.792Z,95961.88
2023-03-01T08:18:10.906Z,95963.84
2023-03-01T08:19:14.262Z,95964.28
2023-03-01T08:20:19.744Z,95962.00
2023-03-01T08:21:22.912Z,95973.22
2023-03-01T08:22:25.836Z,95961.66
2023-03-01T08:23:28.666Z,95960.91
2023-03-01T08:24:31.666Z,95958.56
2023-03-01T08:25:33.588Z,95967.78
2023-03-01T08:26:36.682Z,95961.97
2023-03-01T08:27:38.648Z,95963.06
2023-03-01T08:28:42.413Z,95968.88
2023-03-01T08:29:45.537Z,95958.13
2023-03-01T08:30:48.813Z,95959.31
2023-03-01T08:31:51.904Z,95965.84
2023-03-01T08:32:55.023Z,95964.66
2023-03-01T08:34:00.495Z,95965.09
2023-03-01T08:35:03.984Z,95974.69
2023-03-01T08:36:07.933Z,95964.38
2023-03-01T08:37:10.810Z,95970.94
2023-03-01T08:38:13.630Z,95967.91
2023-03-01T08:39:17.788Z,95964.72
2023-03-01T08:40:20.829Z,95965.41
2023-03-01T08:41:23.236Z,95970.81
2023-03-01T08:42:26.188Z,95961.44
2023-03-01T08:43:28.128Z,95965.19
2023-03-01T08:44:31.090Z,95962.59
2023-03-01T08:45:33.062Z,95961.00
2023-03-01T08:46:39.454Z,95963.69
2023-03-01T08:47:42.315Z,95957.38
2023-03-01T08:48:44.262Z,95952.34
2023-03-01T08:49:47.184Z,95949.66
2023-03-01T08:50:49.049Z,95956.63
2023-03-01T08:51:51.890Z,95952.88
2023-03-01T08:52:54.706Z,95956.69
2023-03-01T08:53:57.827Z,95951.56
2023-03-01T08:55:02.359Z,95950.56
2023-03-01T08:56:05.717Z,95944.75
2023-03-01T08:57:10.022Z,95949.44
2023-03-01T08:58:11.956Z,95940.31
2023-03-01T08:59:22.365Z,95943.44
2023-03-01T09:00:24.443Z,95937.88
2023-03-01T09:01:27.552Z,95933.63
2023-03-01T09:02:30.810Z,95942.56
2023-03-01T09:03:33.742Z,95928.84
2023-03-01T09:04:36.574Z,95937.34
2023-03-01T09:05:38.524Z,95937.34
2023-03-01T09:06:41.488Z,95940.53
2023-03-01T09:07:43.415Z,95930.97
2023-03-01T09:08:48.877Z,95932.97
2023-03-01T09:09:54.329Z,95934.22
2023-03-01T09:10:56.376Z,95933.16
2023-03-01T09:11:59.223Z,95933.25
2023-03-01T09:13:02.631Z,95941.41
2023-03-01T09:14:07.734Z,95937.25
2023-03-01T09:15:11.958Z,95939.50
2023-03-01T09:16:17.657Z,95944.88
2023-03-01T09:17:22.593Z,95939.50
2023-03-01T09:18:27.024Z,95939.13
2023-03-01T09:19:29.883Z,95946.38
2023-03-01T09:20:32.882Z,95938.66
2023-03-01T09:21:40.692Z,95942.09
2023-03-01T09:22:43.089Z,95939.28
2023-03-01T09:23:47.922Z,95939.13
2023-03-01T09:24:50.812Z,95939.03
2023-03-01T09:25:54.852Z,95932.19
2023-03-01T09:26:58.698Z,95938.69
2023-03-01T09:28:00.558Z,95938.34
2023-03-01T09:29:04.365Z,95938.41
2023-03-01T09:30:10.092Z,95949.56
2023-03-01T09:31:13.873Z,95940.91
2023-03-01T09:32:16.894Z,95937.50
2023-03-01T09:33:19.975Z,95932.19
2023-03-01T09:34:25.300Z,95934.47
2023-03-01T09:35:27.191Z,95933.94
2023-03-01T09:36:30.366Z,95933.94
2023-03-01T09:37:33.240Z,95944.38
2023-03-01T09:38:36.487Z,95928.97
2023-03-01T09:39:38.399Z,95930.97
2023-03-01T09:40:46.597Z,95930.97
2023-03-01T09:41:58.287Z,95935.66
2023-03-01T09:43:08.356Z,95935.38
2023-03-01T09:44:18.359Z,95938.94
2023-03-01T09:45:28.577Z,95928.66
2023-03-01T09:46:36.549Z,95938.66
2023-03-01T09:47:39.528Z,95941.69
2023-03-01T09:48:46.475Z,95938.84
2023-03-01T09:49:59.852Z,95938.50
2023-03-01T09:51:08.003Z,95932.41
2023-03-01T09:52:22.067Z,95927.88
2023-03-01T09:53:33.840Z,95924.47
2023-03-01T09:54:35.812Z,95926.47
2023-03-01T09:55:45.172Z,95922.72
2023-03-01T09:56:59.338Z,95927.28
2023-03-01T09:58:14.679Z,95924.88
2023-03-01T09:59:27.017Z,95923.84
2023-03-01T10:00:38.065Z,95921.25
2023-03-01T10:01:45.917Z,95925.94
2023-03-01T10:02:53.523Z,95920.63
2023-03-01T10:04:11.280Z,95925.38
2023-03-01T10:05:33.509Z,95926.25
2023-03-01T10:06:36.148Z,95920.09
2023-03-01T10:07:47.059Z,95920.84
2023-03-01T10:08:57.546Z,95915.19
2023-03-01T10:10:02.271Z,95927.59
2023-03-01T10:11:07.504Z,95911.84
2023-03-01T10:12:13.492Z,95919.94
2023-03-01T10:13:20.711Z,95914.53
2023-03-01T10:14:35.312Z,95913.44
2023-03-01T10:15:46.721Z,95910.75
2023-03-01T10:16:55.520Z,95912.72
2023-03-01T10:18:04.031Z,95908.09
2023-03-01T10:19:08.730Z,95906.59
2023-03-01T10:20:22.642Z,95906.59
2023-03-01T10:21:25.598Z,95909.16
2023-03-01T10:22:30.424Z,95903.72
2023-03-01T10:23:36.549Z,95913.25
2023-03-01T10:24:39.642Z,95910.50
2023-03-01T10:25:52.223Z,95909.03
2023-03-01T10:26:58.241Z,95904.06
2023-03-01T10:28:07.570Z,95908.03
2023-03-01T10:29:11.309Z,95901.59
2023-03-01T10:30:20.930Z,95900.88
2023-03-01T10:31:29.520Z,95903.63
2023-03-01T10:32:33.323Z,95905.53
2023-03-01T10:33:40.527Z,95895.19
2023-03-01T10:34:43.744Z,95902.94
2023-03-01T10:35:48.327Z,95902.84
2023-03-01T10:36:53.576Z,95905.19
2023-03-01T10:38:04.164Z,95894.06
2023-03-01T10:39:14.497Z,95903.28
2023-03-01T10:40:16.792Z,95906.75
2023-03-01T10:41:20.432Z,95906.75
2023-03-01T10:42:29.233Z,95899.03
2023-03-01T10:43:45.600Z,95904.47
2023-03-01T10:44:50.299Z,95902.22
2023-03-01T10:45:53.974Z,95918.44
2023-03-01T10:47:26.876Z,95903.41
2023-03-01T10:48:29.778Z,95901.47
2023-03-01T10:49:32.471Z,95900.03
2023-03-01T10:50:35.857Z,95891.97
2023-03-01T10:51:40.856Z,95895.09
2023-03-01T10:52:43.866Z,95887.03
2023-03-01T10:53:51.203Z,95890.88
2023-03-01T10:54:58.033Z,95889.28
2023-03-01T10:56:02.697Z,95888.53
2023-03-01T10:57:07.344Z,95891.56
2023-03-01T10:58:20.057Z,95885.06
2023-03-01T10:59:28.505Z,95883.91
2023-03-01T11:00:31.665Z,95883.91
2023-03-01T11:01:36.915Z,95873.13
2023-03-01T11:02:39.739Z,95866.97
2023-03-01T11:03:42.807Z,95868.94
2023-03-01T11:05:03.129Z,95866.31
2023-03-01T11:06:23.484Z,95859.44
2023-03-01T11:07:26.997Z,95864.47
2023-03-01T11:08:41.913Z,95851.03
2023-03-01T11:09:43.812Z,95856.50
2023-03-01T11:10:46.701Z,95848.03
2023-03-01T11:11:54.736Z,95857.34
2023-03-01T11:13:09.410Z,95853.50
2023-03-01T11:14:26.817Z,95851.25
2023-03-01T11:15:30.299Z,95838.19
2023-03-01T11:16:36.246Z,95842.13
2023-03-01T11:17:53.222Z,95836.72
2023-03-01T11:19:05.951Z,95835.19
2023-03-01T11:20:24.184Z,95840.56
2023-03-01T11:21:31.062Z,95835.59
2023-03-01T11:22:38.504Z,95829.06
2023-03-01T11:23:43.007Z,95826.78
2023-03-01T11:24:49.382Z,95823.75
2023-03-01T11:25:58.535Z,95826.84
2023-03-01T11:27:04.486Z,95817.63
2023-03-01T11:28:14.506Z,95818.38
2023-03-01T11:29:29.684Z,95808.41
2023-03-01T11:30:42.261Z,95802.22
2023-03-01T11:31:57.264Z,95823.06
2023-03-01T11:33:10.891Z,95810.00
2023-03-01T11:34:20.568Z,95803.81
2023-03-01T11:35:26.331Z,95800.78
2023-03-01T11:36:36.447Z,95801.94
2023-03-01T11:37:46.293Z,95808.13
2023-03-01T11:38:48.601Z,95799.34
2023-03-01T11:40:01.055Z,95804.72
2023-03-01T11:41:09.772Z,95799.38
2023-03-01T11:42:19.302Z,95794.41
2023-03-01T11:43:28.540Z,95795.22
2023-03-01T11:44:35.322Z,95787.97
2023-03-01T11:45:49.613Z,95788.44
2023-03-01T11:47:13.852Z,95788.84
2023-03-01T11:48:48.842Z,95781.09
2023-03-01T11:50:15.412Z,95785.28
2023-03-01T11:51:26.764Z,95781.81
2023-03-01T11:52:41.658Z,95783.34
2023-03-01T11:54:03.500Z,95787.25
2023-03-01T11:55:21.117Z,95782.63
2023-03-01T11:56:33.869Z,95773.41
2023-03-01T11:57:54.739Z,95768.00
2023-03-01T11:59:09.186Z,95773.41
2023-03-01T12:00:36.590Z,95768.41
2023-03-01T12:01:53.785Z,95768.44
2023-03-01T12:03:18.943Z,95772.31
2023-03-01T12:04:56.107Z,95768.03
2023-03-01T12:06:37.471Z,95764.22
2023-03-01T12:07:48.468Z,95768.84
2023-03-01T12:09:03.193Z,95757.34
2023-03-01T12:10:22.958Z,95769.03
2023-03-01T12:11:42.165Z,95770.19
2023-03-01T12:13:00.686Z,95766.81
2023-03-01T12:14:25.458Z,95762.97
2023-03-01T12:15:40.392Z,95764.47
2023-03-01T12:17:26.525Z,95761.38
2023-03-01T12:19:13.973Z,95750.22
2023-03-01T12:20:27.696Z,95748.25
2023-03-01T12:21:44.479Z,95745.94
2023-03-01T12:23:14.642Z,95748.66
2023-03-01T12:24:53.342Z,95752.91
2023-03-01T12:26:01.024Z,95751.47
2023-03-01T12:27:20.604Z,95746.09
2023-03-01T12:28:48.155Z,95738.75
2023-03-01T12:30:00.572Z,95737.59
2023-03-01T12:31:21.884Z,95742.63
2023-03-01T12:32:45.975Z,95739.16
2023-03-01T12:33:59.134Z,95747.59
2023-03-01T12:35:22.311Z,95742.22
2023-03-01T12:36:46.157Z,95733.66
2023-03-01T12:37:58.756Z,95741.03
2023-03-01T12:39:20.421Z,95742.94
2023-03-01T12:40:34.962Z,95745.69
2023-03-01T12:41:47.826Z,95743.38
2023-03-01T12:43:04.778Z,95739.19
2023-03-01T12:44:21.936Z,95738.41
2023-03-01T12:45:52.993Z,95741.84
2023-03-01T12:47:09.338Z,95737.63
2023-03-01T12:48:26.279Z,95732.25
2023-03-01T12:49:33.479Z,95725.28
2023-03-01T12:50:43.413Z,95708.72
2023-03-01T12:51:53.891Z,95713.34
2023-03-01T12:52:58.620Z,95717.59
2023-03-01T12:54:06.372Z,95720.28